createdAt,value
2017-10-17T00:01:39.143Z,17.53
2017-10-17T00:04:07.466Z,16.97
2017-10-17T00:06:35.005Z,11.97
2017-10-17T00:09:02.561Z,15.17
2017-10-17T00:11:30.095Z,15.63
2017-10-17T00:13:58.431Z,16.67
2017-10-17T00:16:25.967Z,16.00
2017-10-17T00:18:53.530Z,16.57
2017-10-17T00:21:21.076Z,19.50
2017-10-17T00:23:48.629Z,17.63
2017-10-17T00:26:16.924Z,17.03
2017-10-17T00:28:44.484Z,16.67
2017-10-17T00:31:12.023Z,16.27
2017-10-17T00:33:40.350Z,12.70
2017-10-17T00:36:08.631Z,14.13
2017-10-17T00:38:43.731Z,13.77
2017-10-17T00:41:11.262Z,24.33
2017-10-17T00:43:39.588Z,21.37
2017-10-17T00:46:09.977Z,13.77
2017-10-17T00:48:38.298Z,19.00
2017-10-17T00:51:07.555Z,14.33
2017-10-17T00:53:35.895Z,13.83
2017-10-17T00:56:03.432Z,12.33
2017-10-17T00:58:30.985Z,11.90
2017-10-17T01:00:58.514Z,16.73
2017-10-17T01:03:26.063Z,13.63
2017-10-17T01:05:54.363Z,16.10
2017-10-17T01:08:21.914Z,25.23
2017-10-17T01:10:49.446Z,13.20
2017-10-17T01:13:17.855Z,16.27
2017-10-17T01:15:45.384Z,13.43
2017-10-17T01:18:12.924Z,14.20
2017-10-17T01:20:55.356Z,24.13
2017-10-17T01:23:33.619Z,14.93
2017-10-17T01:26:01.158Z,15.77
2017-10-17T01:28:31.477Z,15.70
2017-10-17T01:30:59.035Z,14.00
2017-10-17T01:33:26.586Z,16.63
2017-10-17T01:35:54.891Z,19.83
2017-10-17T01:41:20.451Z,16.60
2017-10-17T01:43:50.835Z,14.57
2017-10-17T01:46:19.266Z,17.10
2017-10-17T01:48:47.759Z,14.47
2017-10-17T01:51:18.131Z,16.80
2017-10-17T01:53:46.680Z,14.33
2017-10-17T01:56:14.983Z,16.50
2017-10-17T01:58:44.166Z,14.40
2017-10-17T02:01:13.371Z,15.40
2017-10-17T02:03:40.932Z,20.77
2017-10-17T02:06:09.236Z,15.63
2017-10-17T02:08:36.776Z,14.83
2017-10-17T02:11:04.336Z,20.93
2017-10-17T02:13:31.873Z,15.13
2017-10-17T02:16:00.199Z,12.50
2017-10-17T02:18:27.734Z,12.83
2017-10-17T02:20:57.823Z,16.40
2017-10-17T02:23:27.218Z,16.20
2017-10-17T02:25:57.640Z,13.90
2017-10-17T02:28:33.746Z,13.90
2017-10-17T02:31:02.156Z,14.00
2017-10-17T02:33:36.419Z,12.60
2017-10-17T02:36:04.761Z,17.03
2017-10-17T02:38:32.320Z,15.80
2017-10-17T02:40:59.881Z,13.10
2017-10-17T02:43:27.428Z,14.63
2017-10-17T02:45:54.984Z,20.37
2017-10-17T02:51:31.474Z,15.27
2017-10-17T02:53:59.013Z,18.70
2017-10-17T02:56:26.574Z,19.30
2017-10-17T02:58:54.111Z,16.30
2017-10-17T03:01:29.883Z,14.00
2017-10-17T03:03:57.419Z,15.33
2017-10-17T03:06:25.746Z,17.20
2017-10-17T03:08:53.279Z,16.00
2017-10-17T03:11:20.838Z,14.70
2017-10-17T03:13:49.995Z,24.10
2017-10-17T03:16:17.647Z,16.00
2017-10-17T03:18:45.191Z,15.47
2017-10-17T03:21:14.667Z,14.00
2017-10-17T03:23:56.694Z,15.50
2017-10-17T03:26:24.261Z,19.73
2017-10-17T03:28:51.803Z,14.57
2017-10-17T03:31:20.162Z,14.93
2017-10-17T03:33:47.700Z,15.87
2017-10-17T03:36:20.778Z,14.60
2017-10-17T03:38:51.751Z,17.10
2017-10-17T03:41:22.259Z,14.90
2017-10-17T03:43:53.391Z,19.03
2017-10-17T03:46:26.751Z,12.70
2017-10-17T03:48:54.295Z,20.37
2017-10-17T03:51:23.272Z,16.30
2017-10-17T03:53:50.803Z,18.33
2017-10-17T03:56:24.603Z,18.10
2017-10-17T03:58:52.144Z,15.70
2017-10-17T04:01:35.392Z,15.00
2017-10-17T04:04:10.636Z,12.73
2017-10-17T04:10:01.229Z,17.70
2017-10-17T04:12:28.782Z,16.67
2017-10-17T04:14:56.323Z,17.27
2017-10-17T04:17:23.887Z,14.70
2017-10-17T04:19:52.351Z,17.10
2017-10-17T04:22:24.307Z,14.90
2017-10-17T04:24:59.816Z,15.90
2017-10-17T04:27:36.012Z,20.40
2017-10-17T04:33:13.216Z,15.67
2017-10-17T04:35:45.240Z,15.57
2017-10-17T04:38:12.806Z,17.60
2017-10-17T04:40:44.179Z,16.10
2017-10-17T04:46:23.854Z,15.73
2017-10-17T04:49:08.223Z,15.37
2017-10-17T04:51:36.694Z,17.77
2017-10-17T04:54:10.072Z,21.03
2017-10-17T04:56:38.375Z,14.63
2017-10-17T05:02:37.528Z,24.60
2017-10-17T05:05:22.498Z,16.57
2017-10-17T05:08:04.948Z,18.60
2017-10-17T05:13:34.923Z,19.13
2017-10-17T05:16:14.207Z,16.10
2017-10-17T05:19:01.516Z,18.10
2017-10-17T05:21:29.050Z,21.70
2017-10-17T05:24:06.950Z,18.57
2017-10-17T05:26:34.527Z,20.57
2017-10-17T05:29:06.987Z,21.97
2017-10-17T05:31:34.963Z,19.30
2017-10-17T05:34:08.096Z,21.83
2017-10-17T05:39:33.856Z,21.43
2017-10-17T05:42:01.430Z,23.10
2017-10-17T05:44:37.715Z,21.00
2017-10-17T05:47:07.984Z,17.00
2017-10-17T05:49:49.188Z,16.00
2017-10-17T05:52:16.723Z,17.17
2017-10-17T05:54:45.053Z,16.73
2017-10-17T05:57:12.583Z,20.03
2017-10-17T05:59:40.135Z,20.03
2017-10-17T06:02:07.672Z,23.70
2017-10-17T06:04:35.995Z,20.17
2017-10-17T06:07:03.552Z,22.23
2017-10-17T06:09:31.136Z,19.20
2017-10-17T06:11:58.682Z,27.70
2017-10-17T06:14:26.219Z,18.20
2017-10-17T06:16:53.776Z,16.23
2017-10-17T06:19:21.313Z,15.20
2017-10-17T06:21:49.643Z,20.17
2017-10-17T06:24:17.178Z,16.40
2017-10-17T06:26:44.748Z,21.37
2017-10-17T06:29:12.283Z,16.83
2017-10-17T06:31:40.603Z,19.70
2017-10-17T06:34:08.136Z,20.80
2017-10-17T06:36:35.707Z,22.30
2017-10-17T06:39:03.230Z,18.03
2017-10-17T06:41:31.551Z,21.93
2017-10-17T06:43:59.079Z,24.33
2017-10-17T06:46:26.634Z,17.17
2017-10-17T06:48:54.938Z,19.30
2017-10-17T06:51:22.495Z,19.40
2017-10-17T06:53:50.033Z,16.90
2017-10-17T06:56:18.360Z,19.27
2017-10-17T06:58:45.895Z,18.77
2017-10-17T07:01:13.460Z,18.53
2017-10-17T07:03:41.010Z,20.80
2017-10-17T07:06:08.575Z,15.70
2017-10-17T07:08:36.126Z,18.40
2017-10-17T07:11:03.686Z,19.50
2017-10-17T07:13:31.218Z,17.93
2017-10-17T07:15:59.611Z,18.33
2017-10-17T07:18:27.915Z,16.20
2017-10-17T07:20:55.469Z,15.93
2017-10-17T07:23:23.007Z,20.77
2017-10-17T07:25:51.355Z,20.37
2017-10-17T07:28:18.888Z,13.77
2017-10-17T07:30:46.451Z,26.50
2017-10-17T07:33:13.986Z,19.07
2017-10-17T07:35:41.515Z,20.60
2017-10-17T07:38:09.839Z,18.93
2017-10-17T07:40:37.368Z,20.87
2017-10-17T07:43:04.932Z,18.93
2017-10-17T07:45:32.467Z,17.90
2017-10-17T07:48:00.800Z,17.23
2017-10-17T07:50:28.335Z,16.70
2017-10-17T07:52:55.907Z,23.23
2017-10-17T07:55:23.435Z,21.37
2017-10-17T07:57:51.750Z,22.53
2017-10-17T08:00:19.287Z,21.60
2017-10-17T08:02:46.843Z,16.57
2017-10-17T08:05:14.375Z,17.70
2017-10-17T08:07:41.931Z,20.00
2017-10-17T08:10:09.878Z,17.73
2017-10-17T08:12:37.448Z,19.60
2017-10-17T08:15:04.985Z,16.30
2017-10-17T08:17:32.540Z,21.30
2017-10-17T08:20:00.076Z,19.30
2017-10-17T08:22:27.630Z,21.83
2017-10-17T08:24:55.163Z,17.40
2017-10-17T08:27:23.488Z,16.67
2017-10-17T08:29:51.018Z,18.70
2017-10-17T08:32:19.344Z,17.40
2017-10-17T08:34:46.891Z,13.97
2017-10-17T08:37:14.454Z,26.77
2017-10-17T08:39:42.006Z,36.27
2017-10-17T08:42:09.567Z,15.43
2017-10-17T08:44:37.110Z,17.03
2017-10-17T08:47:04.660Z,14.80
2017-10-17T08:49:32.199Z,17.43
2017-10-17T08:52:00.534Z,21.13
2017-10-17T08:54:28.065Z,17.87
2017-10-17T08:56:55.629Z,18.60
2017-10-17T08:59:23.163Z,18.17
2017-10-17T09:01:51.486Z,18.60
2017-10-17T09:04:19.020Z,19.40
2017-10-17T09:06:46.579Z,20.87
2017-10-17T09:09:14.113Z,15.30
2017-10-17T09:11:42.442Z,15.53
2017-10-17T09:14:09.975Z,19.17
2017-10-17T09:16:37.539Z,19.07
2017-10-17T09:19:05.071Z,16.30
2017-10-17T09:21:33.399Z,19.43
2017-10-17T09:24:00.931Z,17.43
2017-10-17T09:26:28.490Z,18.03
2017-10-17T09:28:56.018Z,20.10
2017-10-17T09:31:23.583Z,20.57
2017-10-17T09:33:51.125Z,22.60
2017-10-17T09:36:18.691Z,18.73
2017-10-17T09:38:46.226Z,19.40
2017-10-17T09:41:13.750Z,16.23
2017-10-17T09:43:41.301Z,18.57
2017-10-17T09:46:09.605Z,13.57
2017-10-17T09:48:37.165Z,18.03
2017-10-17T09:51:04.695Z,15.43
2017-10-17T09:53:33.016Z,16.17
2017-10-17T09:56:00.550Z,14.97
2017-10-17T09:58:28.098Z,14.90
2017-10-17T10:00:55.631Z,16.20
2017-10-17T10:03:23.195Z,17.63
2017-10-17T10:05:51.494Z,16.37
2017-10-17T10:08:19.053Z,14.73
2017-10-17T10:13:21.275Z,14.80
2017-10-17T10:15:48.799Z,17.37
2017-10-17T10:18:17.115Z,15.80
2017-10-17T10:20:44.638Z,13.10
2017-10-17T10:23:12.195Z,16.30
2017-10-17T10:25:40.488Z,12.13
2017-10-17T10:28:08.044Z,12.80
2017-10-17T10:30:35.566Z,12.30
2017-10-17T10:33:03.132Z,14.13
2017-10-17T10:35:31.430Z,15.73
2017-10-17T10:37:59.752Z,15.13
2017-10-17T10:40:27.278Z,10.90
2017-10-17T10:42:54.830Z,15.80
2017-10-17T10:45:22.367Z,12.70
2017-10-17T10:47:50.696Z,11.87
2017-10-17T10:50:18.236Z,14.90
2017-10-17T10:52:45.787Z,14.67
2017-10-17T10:55:13.314Z,13.17
2017-10-17T10:57:40.867Z,16.13
2017-10-17T11:00:08.399Z,13.30
2017-10-17T11:02:35.954Z,15.30
2017-10-17T11:05:03.490Z,11.30
2017-10-17T11:07:31.054Z,17.77
2017-10-17T11:09:58.584Z,13.50
2017-10-17T11:12:26.908Z,11.70
2017-10-17T11:14:54.434Z,14.83
2017-10-17T11:17:22.758Z,14.03
2017-10-17T11:19:50.286Z,16.93
2017-10-17T11:22:17.835Z,12.63
2017-10-17T11:24:45.368Z,10.60
2017-10-17T11:27:12.921Z,11.27
2017-10-17T11:29:40.450Z,12.47
2017-10-17T11:32:08.004Z,14.40
2017-10-17T11:34:35.533Z,11.27
2017-10-17T11:37:03.080Z,12.87
2017-10-17T11:39:31.378Z,10.07
2017-10-17T11:42:10.781Z,10.83
2017-10-17T11:44:38.312Z,13.00
2017-10-17T11:47:05.869Z,17.53
2017-10-17T11:49:33.399Z,13.07
2017-10-17T11:52:00.960Z,10.73
2017-10-17T11:54:28.486Z,9.67
2017-10-17T11:56:56.780Z,9.10
2017-10-17T11:59:24.339Z,10.17
2017-10-17T12:01:51.876Z,11.00
2017-10-17T12:04:20.202Z,12.60
2017-10-17T12:06:47.731Z,15.10
2017-10-17T12:09:16.044Z,13.50
2017-10-17T12:11:43.575Z,12.03
2017-10-17T12:14:11.135Z,13.03
2017-10-17T12:16:38.659Z,9.27
2017-10-17T12:19:06.215Z,9.20
2017-10-17T12:21:33.748Z,12.77
2017-10-17T12:24:01.306Z,13.47
2017-10-17T12:26:28.839Z,12.47
2017-10-17T12:28:56.386Z,9.73
2017-10-17T12:31:24.692Z,10.60
2017-10-17T12:33:52.246Z,9.33
2017-10-17T12:36:19.777Z,13.13
2017-10-17T12:38:48.096Z,9.50
2017-10-17T12:41:15.623Z,9.63
2017-10-17T12:43:43.945Z,12.53
2017-10-17T12:46:11.476Z,12.20
2017-10-17T12:48:39.031Z,13.90
2017-10-17T12:51:06.563Z,11.43
2017-10-17T12:53:34.886Z,15.60
2017-10-17T12:56:02.412Z,10.77
2017-10-17T12:58:30.732Z,8.77
2017-10-17T13:00:58.263Z,13.37
2017-10-17T13:03:25.812Z,21.70
2017-10-17T13:05:54.104Z,12.40
2017-10-17T13:08:21.663Z,10.57
2017-10-17T13:10:49.213Z,13.40
2017-10-17T13:13:16.761Z,11.77
2017-10-17T13:15:45.055Z,11.80
2017-10-17T13:18:12.611Z,11.93
2017-10-17T13:20:40.143Z,10.13
2017-10-17T13:23:07.704Z,11.00
2017-10-17T13:25:35.239Z,9.37
2017-10-17T13:28:02.788Z,10.13
2017-10-17T13:30:30.314Z,9.90
2017-10-17T13:32:57.864Z,14.07
2017-10-17T13:35:25.399Z,13.07
2017-10-17T13:37:52.956Z,13.40
2017-10-17T13:40:20.487Z,9.87
2017-10-17T13:42:48.039Z,11.40
2017-10-17T13:45:15.563Z,9.93
2017-10-17T13:47:43.118Z,10.20
2017-10-17T13:50:11.415Z,9.97
2017-10-17T13:52:38.966Z,12.77
2017-10-17T13:55:06.491Z,11.80
2017-10-17T13:57:34.043Z,8.80
2017-10-17T14:00:01.578Z,9.20
2017-10-17T14:02:29.132Z,13.70
2017-10-17T14:04:56.658Z,9.93
2017-10-17T14:07:24.188Z,9.13
2017-10-17T14:09:51.748Z,8.80
2017-10-17T14:12:19.275Z,11.77
2017-10-17T14:14:46.832Z,11.37
2017-10-17T14:17:14.362Z,11.07
2017-10-17T14:19:41.923Z,10.73
2017-10-17T14:22:09.446Z,8.53
2017-10-17T14:24:37.004Z,8.17
2017-10-17T14:27:04.547Z,13.67
2017-10-17T14:29:32.099Z,10.13
2017-10-17T14:31:59.623Z,8.83
2017-10-17T14:34:27.180Z,9.93
2017-10-17T14:36:54.710Z,14.30
2017-10-17T14:39:23.028Z,8.90
2017-10-17T14:41:50.555Z,9.30
2017-10-17T14:44:18.869Z,9.00
2017-10-17T14:46:46.399Z,10.90
2017-10-17T14:49:14.719Z,8.47
2017-10-17T14:51:42.246Z,12.30
2017-10-17T14:54:09.799Z,9.60
2017-10-17T14:56:38.091Z,10.60
2017-10-17T14:59:05.647Z,11.77
2017-10-17T15:01:33.180Z,9.03
2017-10-17T15:04:01.493Z,9.27
2017-10-17T15:06:29.024Z,11.67
2017-10-17T15:08:57.345Z,9.20
2017-10-17T15:11:24.883Z,8.87
2017-10-17T15:13:52.436Z,9.17
2017-10-17T15:16:19.971Z,12.40
2017-10-17T15:18:48.294Z,9.13
2017-10-17T15:21:15.827Z,13.73
2017-10-17T15:23:43.387Z,11.63
2017-10-17T15:26:11.679Z,10.60
2017-10-17T15:28:39.236Z,9.70
2017-10-17T15:31:06.763Z,9.73
2017-10-17T15:33:35.088Z,10.00
2017-10-17T15:36:02.616Z,8.47
2017-10-17T15:38:30.930Z,15.03
2017-10-17T15:40:58.459Z,11.70
2017-10-17T15:43:26.010Z,9.13
2017-10-17T15:45:54.305Z,10.43
2017-10-17T15:48:21.863Z,10.00
2017-10-17T15:50:49.386Z,11.30
2017-10-17T15:53:16.935Z,11.43
2017-10-17T15:55:44.459Z,8.63
2017-10-17T15:58:12.019Z,14.10
2017-10-17T16:00:39.547Z,12.63
2017-10-17T16:03:07.860Z,9.43
2017-10-17T16:05:35.398Z,10.77
2017-10-17T16:08:02.955Z,12.97
2017-10-17T16:10:30.486Z,11.63
2017-10-17T16:12:58.008Z,12.97
2017-10-17T16:15:25.559Z,11.90
2017-10-17T16:17:53.082Z,9.43
2017-10-17T16:20:21.404Z,10.93
2017-10-17T16:22:48.931Z,10.83
2017-10-17T16:25:16.487Z,9.80
2017-10-17T16:27:44.016Z,14.43
2017-10-17T16:30:11.575Z,11.83
2017-10-17T16:32:39.112Z,13.00
2017-10-17T16:35:06.658Z,11.00
2017-10-17T16:37:34.179Z,11.23
2017-10-17T16:40:02.496Z,11.10
2017-10-17T16:42:30.019Z,8.07
2017-10-17T16:44:57.570Z,12.73
2017-10-17T16:47:25.859Z,10.20
2017-10-17T16:49:53.410Z,11.53
2017-10-17T16:52:21.696Z,10.93
2017-10-17T16:54:49.246Z,14.00
2017-10-17T16:57:17.540Z,10.30
2017-10-17T16:59:45.095Z,13.23
2017-10-17T17:02:12.634Z,11.10
2017-10-17T17:04:40.952Z,14.93
2017-10-17T17:07:08.487Z,13.17
2017-10-17T17:09:36.051Z,11.77
2017-10-17T17:12:03.575Z,12.63
2017-10-17T17:14:31.131Z,13.90
2017-10-17T17:16:58.662Z,11.87
2017-10-17T17:19:26.212Z,11.20
2017-10-17T17:21:53.751Z,12.97
2017-10-17T17:24:21.308Z,13.67
2017-10-17T17:26:48.839Z,11.67
2017-10-17T17:29:17.163Z,14.53
2017-10-17T17:31:44.698Z,15.17
2017-10-17T17:34:12.254Z,11.90
2017-10-17T17:36:39.803Z,12.20
2017-10-17T17:39:08.124Z,13.23
2017-10-17T17:41:35.811Z,14.10
2017-10-17T17:44:03.366Z,14.63
2017-10-17T17:46:30.891Z,13.83
2017-10-17T17:48:58.447Z,14.17
2017-10-17T17:51:25.979Z,14.90
2017-10-17T17:53:54.311Z,19.13
2017-10-17T17:56:21.837Z,13.53
2017-10-17T17:58:49.404Z,12.80
2017-10-17T18:01:16.935Z,14.80
2017-10-17T18:03:45.263Z,12.90
2017-10-17T18:06:12.795Z,18.30
2017-10-17T18:08:40.358Z,14.90
2017-10-17T18:11:07.891Z,14.23
2017-10-17T18:13:36.218Z,15.73
2017-10-17T18:16:03.760Z,14.30
2017-10-17T18:18:31.320Z,13.33
2017-10-17T18:20:58.855Z,15.67
2017-10-17T18:23:27.154Z,12.83
2017-10-17T18:25:54.711Z,14.27
2017-10-17T18:28:22.247Z,15.37
2017-10-17T18:30:50.574Z,13.40
2017-10-17T18:33:18.107Z,13.40
2017-10-17T18:35:45.698Z,13.33
2017-10-17T18:38:13.232Z,17.10
2017-10-17T18:40:40.790Z,16.10
2017-10-17T18:43:09.067Z,16.53
2017-10-17T18:45:36.649Z,15.97
2017-10-17T18:48:04.196Z,14.77
2017-10-17T18:50:31.751Z,16.00
2017-10-17T18:52:59.286Z,14.17
2017-10-17T18:55:27.606Z,23.17
2017-10-17T18:57:55.134Z,15.27
2017-10-17T19:00:22.701Z,17.97
2017-10-17T19:02:50.231Z,17.57
2017-10-17T19:05:18.562Z,18.73
2017-10-17T19:07:46.105Z,19.60
2017-10-17T19:10:13.669Z,20.30
2017-10-17T19:12:41.204Z,16.93
2017-10-17T19:15:09.537Z,22.30
2017-10-17T19:17:37.073Z,20.90
2017-10-17T19:20:04.631Z,21.00
2017-10-17T19:22:32.501Z,22.87
2017-10-17T19:25:00.110Z,23.03
2017-10-17T19:27:27.687Z,23.87
2017-10-17T19:29:56.008Z,21.17
2017-10-17T19:32:24.789Z,23.73
2017-10-17T19:34:52.580Z,22.50
2017-10-17T19:37:22.606Z,22.43
2017-10-17T19:39:51.563Z,22.40
2017-10-17T19:42:19.911Z,24.57
2017-10-17T19:44:47.612Z,23.13
2017-10-17T19:47:15.143Z,20.80
2017-10-17T19:49:42.698Z,26.43
2017-10-17T19:52:10.241Z,20.87
2017-10-17T19:54:38.574Z,21.70
2017-10-17T19:57:06.296Z,29.40
2017-10-17T19:59:33.983Z,22.97
2017-10-17T20:02:01.558Z,23.93
2017-10-17T20:04:29.146Z,28.93
2017-10-17T20:06:56.691Z,27.30
2017-10-17T20:09:24.307Z,23.80
2017-10-17T20:11:51.851Z,20.83
2017-10-17T20:14:20.313Z,27.93
2017-10-17T20:16:47.968Z,17.93
2017-10-17T20:19:15.535Z,20.40
2017-10-17T20:21:43.076Z,20.07
2017-10-17T20:24:11.404Z,17.60
2017-10-17T20:26:38.952Z,20.20
2017-10-17T20:29:07.291Z,21.13
2017-10-17T20:31:34.992Z,16.73
2017-10-17T20:34:03.319Z,22.10
2017-10-17T20:36:30.871Z,18.60
2017-10-17T20:38:58.407Z,18.63
2017-10-17T20:41:25.970Z,21.50
2017-10-17T20:43:53.528Z,16.80
2017-10-17T20:46:21.090Z,19.77
2017-10-17T20:48:48.627Z,19.40
2017-10-17T20:51:16.955Z,21.77
2017-10-17T20:53:44.487Z,20.40
2017-10-17T20:56:12.043Z,19.27
2017-10-17T20:58:39.579Z,20.33
2017-10-17T21:01:07.908Z,18.47
2017-10-17T21:03:35.455Z,19.70
2017-10-17T21:06:03.023Z,16.70
2017-10-17T21:08:30.560Z,17.43
2017-10-17T21:10:58.127Z,18.00
2017-10-17T21:13:25.674Z,17.73
2017-10-17T21:15:53.239Z,21.67
2017-10-17T21:18:20.770Z,17.57
2017-10-17T21:20:48.338Z,16.30
2017-10-17T21:23:16.644Z,20.93
2017-10-17T21:25:44.207Z,19.67
2017-10-17T21:28:11.744Z,24.07
2017-10-17T21:30:39.303Z,17.30
2017-10-17T21:33:07.600Z,22.13
2017-10-17T21:35:35.165Z,19.53
2017-10-17T21:38:02.699Z,22.93
2017-10-17T21:40:31.030Z,18.30
2017-10-17T21:42:59.620Z,21.67
2017-10-17T21:45:27.179Z,21.17
2017-10-17T21:47:54.715Z,22.40
2017-10-17T21:50:22.279Z,20.03
2017-10-17T21:52:49.816Z,21.73
2017-10-17T21:55:17.375Z,22.20
2017-10-17T21:57:44.910Z,21.30
2017-10-17T22:00:13.451Z,17.63
2017-10-17T22:02:40.995Z,19.73
2017-10-17T22:05:08.562Z,18.57
2017-10-17T22:07:36.099Z,19.90
2017-10-17T22:10:03.659Z,19.90
2017-10-17T22:12:31.384Z,22.33
2017-10-17T22:14:58.948Z,22.67
2017-10-17T22:17:26.571Z,20.27
2017-10-17T22:19:54.130Z,19.40
2017-10-17T22:22:21.671Z,20.90
2017-10-17T22:24:49.223Z,26.30
2017-10-17T22:27:16.770Z,23.90
2017-10-17T22:29:45.091Z,22.40
2017-10-17T22:52:10.501Z,34.80
2017-10-17T22:54:38.066Z,38.37
2017-10-17T22:57:09.408Z,35.97
2017-10-17T22:59:36.944Z,33.70
2017-10-17T23:02:04.508Z,29.30
2017-10-17T23:04:32.819Z,27.13
2017-10-17T23:07:00.379Z,26.57
2017-10-17T23:09:27.919Z,22.93
2017-10-17T23:11:55.482Z,25.97
2017-10-17T23:14:23.022Z,22.43
2017-10-17T23:17:14.237Z,28.03
2017-10-17T23:19:53.564Z,25.30
2017-10-17T23:22:39.863Z,22.87
2017-10-17T23:25:07.423Z,24.40
2017-10-17T23:27:34.964Z,23.50
2017-10-17T23:30:02.526Z,26.30
2017-10-17T23:32:30.062Z,25.37
2017-10-17T23:34:57.620Z,27.50
2017-10-17T23:37:25.168Z,22.87
2017-10-17T23:39:52.711Z,26.53
2017-10-17T23:42:20.271Z,18.70
2017-10-17T23:44:47.809Z,19.93
2017-10-17T23:47:16.139Z,18.33
2017-10-17T23:49:43.674Z,19.00
2017-10-17T23:52:15.851Z,21.83
2017-10-17T23:54:43.393Z,15.97
2017-10-17T23:57:11.715Z,24.07
2017-10-17T23:59:39.252Z,20.67
